Hovedside
METAR-TAF:

METAR-TAF

Lufthavner :

RAF Brize Norton

Brize Norton, England

breddegrad: 51-45N, lengdegrad: 001-35W, høyde over havet: 88 m

Gjeldene værobservasjon

Denne rapporten ble laget for 48 minutter siden, klokken 14:20 UTC
Vind 5 kt fra Sør
Temperatur 25°C
Luftfuktighet 47%
Trykk 1019 hPa
Sikt 10 km eller mer
Få skyer i en høyde av 4800 ft
Spredte skyer i en høyde av 11000 ft

METAR: EGVN 181420Z 17005KT 9999 FEW048 SCT110 25/13 Q1019 NOSIG RMK BLU BLU

Tid: 16:08 (15:08 UTC)

Varsel

Denne rapporten ble laget for 1 time og 22 minutter siden, klokken 13:46 UTC
Varsel gyldig fra 18. klokken 15 UTC til 19. klokken 15 UTC
Vind 6 kt fra Sør
Sikt 10 km eller mer
Få skyer i en høyde av 4800 ft
Sannsynlighet 30%
fra 19. klokken 02 UTC til 19. klokken 06 UTC
Sikt: 7000 m
dis,

TAF: EGVN 181346Z 1815/1915 18006KT 9999 FEW048 PROB30 1902/1906 7000 HZ

Værobservasjoner og værvarsel for over 4000 flyplasser (METAR- og TAF-rapporter).

Tilgjengelige stasjoner er representert av de røde og gule prikkene på kartet.

Hold musepekeren over prikken for å se navnet på stasjonen.

Klikk så for å se værobservasjoner og -varsler.

For å forandre kartet kan du klikke på den grønne knappen med svart kryss for å zoome inn, på den grønne knappen med strek for å zoome ut, eller på de grønne pilene for å se tilstøtende kart.


METAR-TAF: